createdAt,value
2022-10-10T00:01:16.161Z,11.75
2022-10-10T00:03:43.726Z,11.97
2022-10-10T00:06:11.212Z,12.10
2022-10-10T00:08:38.950Z,12.81
2022-10-10T00:11:06.282Z,12.34
2022-10-10T00:13:34.344Z,12.68
2022-10-10T00:16:01.857Z,11.77
2022-10-10T00:18:29.941Z,11.53
2022-10-10T00:20:56.747Z,10.99
2022-10-10T00:23:24.633Z,10.91
2022-10-10T00:25:51.758Z,10.36
2022-10-10T00:28:19.283Z,10.74
2022-10-10T00:30:47.022Z,10.74
2022-10-10T00:33:14.131Z,11.45
2022-10-10T00:35:41.504Z,11.67
2022-10-10T00:38:09.110Z,10.71
2022-10-10T00:40:52.953Z,11.45
2022-10-10T00:43:21.254Z,11.46
2022-10-10T00:45:50.456Z,11.80
2022-10-10T00:48:34.365Z,10.74
2022-10-10T00:51:07.728Z,11.43
2022-10-10T00:54:08.947Z,12.44
2022-10-10T00:56:48.783Z,11.04
2022-10-10T00:59:16.880Z,11.62
2022-10-10T01:01:43.686Z,12.89
2022-10-10T01:04:29.736Z,12.98
2022-10-10T01:06:57.377Z,12.83
2022-10-10T01:09:24.523Z,12.70
2022-10-10T01:12:24.297Z,12.43
2022-10-10T01:14:58.669Z,12.88
2022-10-10T01:17:47.242Z,12.41
2022-10-10T01:20:32.943Z,11.52
2022-10-10T01:23:20.792Z,11.69
2022-10-10T01:26:15.255Z,12.66
2022-10-10T01:29:29.963Z,12.03
2022-10-10T01:32:24.455Z,12.43
2022-10-10T01:35:33.480Z,11.70
2022-10-10T01:38:34.526Z,12.21
2022-10-10T01:41:14.787Z,12.51
2022-10-10T01:43:42.553Z,12.68
2022-10-10T01:46:16.136Z,12.36
2022-10-10T01:49:08.564Z,12.00
2022-10-10T01:52:22.758Z,12.71
2022-10-10T01:55:17.946Z,12.66
2022-10-10T01:58:00.048Z,11.88
2022-10-10T02:00:27.220Z,11.60
2022-10-10T02:03:16.418Z,11.25
2022-10-10T02:06:01.425Z,11.79
2022-10-10T02:08:48.000Z,12.29
2022-10-10T02:11:17.928Z,12.35
2022-10-10T02:14:01.243Z,11.84
2022-10-10T02:16:35.300Z,11.49
2022-10-10T02:19:03.414Z,12.10
2022-10-10T02:21:32.023Z,11.92
2022-10-10T02:24:03.893Z,11.88
2022-10-10T02:26:32.034Z,12.06
2022-10-10T02:29:11.451Z,11.37
2022-10-10T02:31:54.795Z,11.76
2022-10-10T02:34:27.243Z,12.14
2022-10-10T02:36:59.318Z,12.01
2022-10-10T02:39:30.929Z,12.21
2022-10-10T02:41:57.945Z,11.73
2022-10-10T02:44:25.897Z,11.99
2022-10-10T02:46:53.268Z,12.31
2022-10-10T02:49:29.099Z,10.94
2022-10-10T02:51:56.207Z,12.28
2022-10-10T02:54:23.245Z,10.74
2022-10-10T02:56:50.597Z,11.80
2022-10-10T02:59:17.821Z,12.01
2022-10-10T03:01:44.964Z,12.18
2022-10-10T03:04:11.891Z,11.48
2022-10-10T03:06:39.545Z,10.49
2022-10-10T03:09:06.407Z,11.37
2022-10-10T03:11:33.643Z,10.70
2022-10-10T03:14:00.628Z,10.76
2022-10-10T03:16:27.616Z,10.36
2022-10-10T03:19:00.471Z,11.66
2022-10-10T03:21:33.981Z,11.65
2022-10-10T03:24:00.992Z,11.97
2022-10-10T03:26:28.176Z,11.30
2022-10-10T03:28:55.188Z,11.70
2022-10-10T03:31:22.275Z,10.98
2022-10-10T03:33:49.371Z,11.25
2022-10-10T03:36:16.182Z,11.85
2022-10-10T03:38:43.214Z,12.34
2022-10-10T03:41:17.096Z,12.18
2022-10-10T03:43:44.123Z,11.25
2022-10-10T03:46:15.820Z,10.20
2022-10-10T03:48:43.811Z,10.76
2022-10-10T03:51:10.768Z,10.09
2022-10-10T03:53:38.181Z,11.32
2022-10-10T03:56:05.766Z,10.75
2022-10-10T03:58:32.965Z,11.08
2022-10-10T04:01:02.197Z,10.95
2022-10-10T04:03:29.898Z,10.92
2022-10-10T04:05:56.902Z,10.98
2022-10-10T04:08:24.442Z,9.99
2022-10-10T04:10:52.636Z,11.53
2022-10-10T04:13:20.961Z,11.00
2022-10-10T04:15:54.493Z,11.07
2022-10-10T04:18:23.110Z,10.86
2022-10-10T04:20:50.355Z,10.10
2022-10-10T04:23:17.446Z,9.79
2022-10-10T04:25:44.734Z,10.89
2022-10-10T04:28:14.152Z,10.80
2022-10-10T04:30:41.079Z,10.82
2022-10-10T04:33:08.592Z,11.12
2022-10-10T04:35:37.130Z,11.37
2022-10-10T04:38:04.830Z,10.19
2022-10-10T04:40:32.096Z,10.87
2022-10-10T04:42:59.455Z,10.64
2022-10-10T04:45:27.674Z,9.29
2022-10-10T04:47:55.264Z,9.46
2022-10-10T04:50:23.576Z,10.76
2022-10-10T04:52:51.114Z,11.11
2022-10-10T04:55:18.170Z,9.86
2022-10-10T04:57:45.246Z,10.05
2022-10-10T05:00:12.493Z,11.43
2022-10-10T05:02:39.916Z,11.69
2022-10-10T05:05:07.461Z,11.33
2022-10-10T05:07:34.725Z,11.40
2022-10-10T05:10:01.661Z,11.82
2022-10-10T05:12:28.974Z,11.25
2022-10-10T05:14:55.777Z,11.29
2022-10-10T05:17:22.741Z,11.79
2022-10-10T05:19:49.759Z,11.60
2022-10-10T05:22:16.757Z,9.76
2022-10-10T05:24:43.601Z,10.45
2022-10-10T05:27:10.623Z,10.95
2022-10-10T05:29:38.062Z,11.18
2022-10-10T05:32:09.938Z,11.69
2022-10-10T05:34:37.556Z,12.15
2022-10-10T05:37:04.709Z,11.91
2022-10-10T05:39:57.374Z,12.67
2022-10-10T05:42:28.499Z,12.83
2022-10-10T05:44:55.488Z,13.12
2022-10-10T05:47:27.662Z,12.96
2022-10-10T05:49:55.190Z,13.55
2022-10-10T05:52:22.230Z,13.87
2022-10-10T05:54:49.338Z,12.16
2022-10-10T05:57:16.734Z,12.90
2022-10-10T05:59:43.850Z,12.34
2022-10-10T06:02:13.588Z,11.85
2022-10-10T06:04:40.512Z,10.59
2022-10-10T06:07:07.523Z,12.00
2022-10-10T06:09:34.402Z,11.17
2022-10-10T06:12:10.515Z,12.56
2022-10-10T06:14:47.826Z,12.62
2022-10-10T06:17:15.183Z,13.42
2022-10-10T06:19:41.943Z,12.11
2022-10-10T06:22:09.366Z,13.25
2022-10-10T06:24:36.251Z,11.79
2022-10-10T06:27:05.401Z,12.82
2022-10-10T06:29:32.138Z,13.75
2022-10-10T06:31:59.327Z,14.06
2022-10-10T06:34:26.181Z,14.05
2022-10-10T06:36:53.240Z,14.61
2022-10-10T06:39:20.140Z,15.11
2022-10-10T06:41:49.593Z,15.39
2022-10-10T06:44:20.089Z,14.68
2022-10-10T06:46:47.258Z,14.77
